Time;durP1;ratioP1;P1;durP2;ratioP2;P2;SDS_P1;SDS_P2;PMS_P1;PMS_P2;Temp;Humidity;BMP_temperature;BMP_pressure;BME280_temperature;BME280_humidity;BME280_pressure;Samples;Min_cycle;Max_cycle;Signal;HPM_P1;HPM_P2
2023/05/04 00:01:44;;;;;;;6.97;4.72;;;6.80;99.90;;;;;;5049796;28;20053;-59
2023/05/04 00:04:09;;;;;;;6.25;4.35;;;6.90;99.90;;;;;;5051093;28;20048;-60
2023/05/04 00:06:35;;;;;;;9.40;4.65;;;6.80;99.90;;;;;;5053568;28;20044;-58
2023/05/04 00:09:01;;;;;;;9.27;5.03;;;6.80;99.90;;;;;;5050918;28;20049;-61
2023/05/04 00:11:26;;;;;;;7.38;4.43;;;6.80;99.90;;;;;;5052930;28;20041;-60
2023/05/04 00:13:52;;;;;;;6.45;4.63;;;6.80;99.90;;;;;;5052207;28;20048;-60
2023/05/04 00:16:18;;;;;;;5.47;4.10;;;6.70;99.90;;;;;;5052627;28;20049;-59
2023/05/04 00:18:43;;;;;;;7.45;4.45;;;6.70;99.90;;;;;;5050955;28;20143;-60
2023/05/04 00:21:09;;;;;;;8.40;4.40;;;6.70;99.90;;;;;;5052583;28;20079;-59
2023/05/04 00:23:35;;;;;;;11.05;4.85;;;6.70;99.90;;;;;;5054408;28;20037;-59
2023/05/04 00:26:01;;;;;;;6.75;4.68;;;6.70;99.90;;;;;;5049637;28;20069;-61
2023/05/04 00:28:27;;;;;;;7.55;4.45;;;6.60;99.90;;;;;;5052233;28;20044;-60
2023/05/04 00:30:53;;;;;;;7.03;4.65;;;6.70;99.90;;;;;;5051685;28;20032;-61
2023/05/04 00:33:19;;;;;;;8.85;5.15;;;6.60;99.90;;;;;;5050940;28;20068;-60
2023/05/04 00:35:44;;;;;;;7.50;4.43;;;6.60;99.90;;;;;;5052182;28;20465;-59
2023/05/04 00:38:10;;;;;;;8.70;4.75;;;6.60;99.90;;;;;;5051055;28;20037;-60
2023/05/04 00:40:35;;;;;;;8.43;5.13;;;6.60;99.90;;;;;;5050262;28;20078;-60
2023/05/04 00:43:01;;;;;;;9.00;4.72;;;6.60;99.90;;;;;;5050675;28;20049;-59
2023/05/04 00:45:27;;;;;;;8.68;4.90;;;6.50;99.90;;;;;;5051897;28;20040;-61
2023/05/04 00:47:53;;;;;;;11.00;5.13;;;6.50;99.90;;;;;;5052016;28;20045;-59
2023/05/04 00:50:19;;;;;;;6.07;4.88;;;6.50;99.90;;;;;;5051790;28;20535;-60
2023/05/04 00:52:47;;;;;;;7.65;4.65;;;6.50;99.90;;;;;;5051274;28;20045;-58
2023/05/04 00:55:13;;;;;;;8.07;4.40;;;6.50;99.90;;;;;;5051519;28;20056;-62
2023/05/04 00:57:40;;;;;;;9.05;4.72;;;6.50;99.90;;;;;;5051549;28;20037;-60
2023/05/04 01:00:09;;;;;;;7.57;4.45;;;6.40;99.90;;;;;;5050209;28;20120;-60
2023/05/04 01:02:35;;;;;;;10.38;4.80;;;6.40;99.90;;;;;;5049987;28;20043;-60
2023/05/04 01:05:01;;;;;;;8.57;5.28;;;6.40;99.90;;;;;;5049754;28;20403;-59
2023/05/04 01:07:42;;;;;;;8.68;4.40;;;6.40;99.90;;;;;;5051713;28;20452;-60
2023/05/04 01:10:26;;;;;;;8.63;4.40;;;6.40;99.90;;;;;;5050106;28;20048;-59
2023/05/04 01:13:02;;;;;;;7.72;4.80;;;6.30;99.90;;;;;;5033779;28;20116;-62
2023/05/04 01:15:29;;;;;;;11.95;4.90;;;6.40;99.90;;;;;;5049225;28;20373;-59
2023/05/04 01:17:54;;;;;;;7.53;4.75;;;6.30;99.90;;;;;;5049569;28;20033;-58
2023/05/04 01:20:20;;;;;;;8.13;4.70;;;6.40;99.90;;;;;;5050385;28;20036;-58
2023/05/04 01:22:46;;;;;;;11.63;5.43;;;6.30;99.90;;;;;;5047494;28;20400;-59
2023/05/04 01:25:12;;;;;;;9.75;4.80;;;6.30;99.90;;;;;;5048585;28;20049;-61
2023/05/04 01:27:52;;;;;;;9.13;4.95;;;6.30;99.90;;;;;;5048632;28;20534;-58
2023/05/04 01:30:30;;;;;;;10.75;5.65;;;6.30;99.90;;;;;;5050019;28;20044;-59
2023/05/04 01:33:01;;;;;;;8.43;4.75;;;6.30;99.90;;;;;;5049446;28;20052;-61
2023/05/04 01:35:27;;;;;;;8.30;4.90;;;6.30;99.90;;;;;;5050139;28;20037;-62
2023/05/04 01:37:53;;;;;;;7.78;5.03;;;6.30;99.90;;;;;;5049165;28;20118;-60
2023/05/04 01:40:19;;;;;;;9.93;4.95;;;6.20;99.90;;;;;;5048777;28;20068;-62
2023/05/04 01:42:45;;;;;;;7.38;5.10;;;6.20;99.90;;;;;;5048517;28;20029;-61
2023/05/04 01:45:11;;;;;;;11.00;5.18;;;6.20;99.90;;;;;;5051209;28;20123;-60
2023/05/04 01:47:36;;;;;;;7.65;4.50;;;6.20;99.90;;;;;;5050622;28;20495;-60
2023/05/04 01:50:04;;;;;;;9.93;5.28;;;6.20;99.90;;;;;;5067917;28;20041;-61
2023/05/04 01:52:30;;;;;;;9.20;5.30;;;6.20;99.90;;;;;;5049276;28;20061;-61
2023/05/04 01:54:55;;;;;;;9.32;5.20;;;6.20;99.90;;;;;;5050307;28;20037;-60
2023/05/04 01:57:22;;;;;;;11.50;5.30;;;6.20;99.90;;;;;;5048167;28;20440;-60
2023/05/04 01:59:47;;;;;;;7.25;5.20;;;6.10;99.90;;;;;;5048229;28;20045;-61
2023/05/04 02:02:13;;;;;;;9.68;5.47;;;6.10;99.90;;;;;;5047702;28;20399;-60
2023/05/04 02:04:40;;;;;;;9.00;5.50;;;6.10;99.90;;;;;;5049111;28;20041;-60
2023/05/04 02:07:06;;;;;;;10.43;5.10;;;6.10;99.90;;;;;;5049579;28;20559;-60
2023/05/04 02:09:31;;;;;;;8.82;4.97;;;6.10;99.90;;;;;;5049753;28;20045;-60
2023/05/04 02:11:57;;;;;;;8.40;5.85;;;6.10;99.90;;;;;;5049464;28;20147;-60
2023/05/04 02:14:23;;;;;;;10.35;5.80;;;6.10;99.90;;;;;;5049460;28;20053;-60
2023/05/04 02:16:49;;;;;;;9.80;5.57;;;6.10;99.90;;;;;;5049180;28;20036;-59
2023/05/04 02:19:14;;;;;;;9.80;5.28;;;6.10;99.90;;;;;;5051288;28;20070;-61
2023/05/04 02:21:41;;;;;;;12.38;6.07;;;6.10;99.90;;;;;;5050108;28;20033;-59
2023/05/04 02:24:07;;;;;;;9.25;5.60;;;6.10;99.90;;;;;;5048568;28;20041;-61
2023/05/04 02:26:33;;;;;;;9.68;5.93;;;6.10;99.90;;;;;;5048535;28;20045;-60
2023/05/04 02:28:58;;;;;;;9.15;5.82;;;6.10;99.90;;;;;;5049639;28;20033;-59
2023/05/04 02:31:24;;;;;;;7.38;5.68;;;6.10;99.90;;;;;;5049917;28;20404;-60
2023/05/04 02:33:51;;;;;;;11.52;5.57;;;6.10;99.90;;;;;;5050051;28;20033;-60
2023/05/04 02:36:16;;;;;;;9.13;5.75;;;6.10;99.90;;;;;;5049991;28;20168;-61
2023/05/04 02:38:42;;;;;;;9.70;6.22;;;6.10;99.90;;;;;;5051141;28;20115;-61
2023/05/04 02:41:08;;;;;;;8.57;5.57;;;6.10;99.90;;;;;;5049769;28;20033;-60
2023/05/04 02:43:33;;;;;;;11.43;5.97;;;6.10;99.90;;;;;;5048553;28;20071;-60
2023/05/04 02:45:59;;;;;;;10.63;5.80;;;6.10;99.90;;;;;;5049927;28;20080;-60
2023/05/04 02:48:25;;;;;;;13.52;6.45;;;6.10;99.90;;;;;;5054482;28;20037;-61
2023/05/04 02:50:50;;;;;;;12.70;6.47;;;6.10;99.90;;;;;;5057214;28;20033;-59
2023/05/04 02:53:16;;;;;;;9.73;5.80;;;6.10;99.90;;;;;;5056311;28;20644;-58
2023/05/04 02:55:42;;;;;;;9.88;5.82;;;6.10;99.90;;;;;;5056087;28;20056;-61
2023/05/04 02:58:07;;;;;;;12.32;5.72;;;6.20;99.90;;;;;;5055048;28;20125;-60
2023/05/04 03:00:33;;;;;;;11.90;6.13;;;6.10;99.90;;;;;;5056638;28;20043;-59
2023/05/04 03:02:59;;;;;;;12.05;6.32;;;6.20;99.90;;;;;;5055943;28;20039;-61
2023/05/04 03:05:25;;;;;;;9.93;6.35;;;6.20;99.90;;;;;;5056521;28;20045;-62
2023/05/04 03:07:50;;;;;;;10.75;6.00;;;6.10;99.90;;;;;;5055969;28;20115;-60
2023/05/04 03:10:16;;;;;;;10.02;6.45;;;6.20;99.90;;;;;;5058410;28;20037;-60
2023/05/04 03:12:41;;;;;;;10.40;6.38;;;6.20;99.90;;;;;;5058316;28;20029;-62
2023/05/04 03:15:07;;;;;;;12.68;6.32;;;6.10;99.90;;;;;;5056487;28;20033;-61
2023/05/04 03:17:33;;;;;;;11.35;6.63;;;6.20;99.90;;;;;;5058802;28;20040;-60
2023/05/04 03:20:00;;;;;;;9.85;6.50;;;6.10;99.90;;;;;;5051313;28;20048;-60
2023/05/04 03:22:26;;;;;;;12.00;6.50;;;6.10;99.90;;;;;;5054355;28;20047;-62
2023/05/04 03:24:51;;;;;;;10.88;6.13;;;6.10;99.90;;;;;;5054958;28;20119;-60
2023/05/04 03:27:17;;;;;;;11.63;6.60;;;6.10;99.90;;;;;;5054931;28;20033;-60
2023/05/04 03:29:42;;;;;;;11.40;6.70;;;6.10;99.90;;;;;;5054894;28;20029;-62
2023/05/04 03:32:08;;;;;;;12.95;6.90;;;6.10;99.90;;;;;;5057526;28;20052;-60
2023/05/04 03:34:34;;;;;;;11.60;6.68;;;6.10;99.90;;;;;;5051924;28;20457;-61
2023/05/04 03:37:00;;;;;;;9.65;6.50;;;6.10;99.90;;;;;;5056027;28;20394;-61
2023/05/04 03:39:25;;;;;;;12.93;7.07;;;6.10;99.90;;;;;;5056102;28;20128;-61
2023/05/04 03:41:51;;;;;;;12.02;7.10;;;6.10;99.90;;;;;;5056261;28;20043;-60
2023/05/04 03:44:17;;;;;;;11.85;6.72;;;6.10;99.90;;;;;;5056280;28;20064;-61
2023/05/04 03:46:43;;;;;;;11.57;7.45;;;6.10;99.90;;;;;;5055201;28;20048;-60
2023/05/04 03:49:08;;;;;;;10.93;6.15;;;6.10;99.90;;;;;;5055598;28;20393;-62
2023/05/04 03:51:34;;;;;;;10.10;6.53;;;6.10;99.90;;;;;;5054494;28;20130;-61
2023/05/04 03:54:00;;;;;;;13.55;6.03;;;6.10;99.90;;;;;;5056171;28;20453;-61
2023/05/04 03:56:25;;;;;;;12.90;6.93;;;6.10;99.90;;;;;;5056291;28;20048;-61
2023/05/04 03:58:51;;;;;;;11.95;6.78;;;6.10;99.90;;;;;;5054105;28;20408;-61
2023/05/04 04:01:17;;;;;;;13.02;6.82;;;6.10;99.90;;;;;;5051090;28;20113;-62
2023/05/04 04:03:43;;;;;;;11.90;6.72;;;6.10;99.90;;;;;;5052664;28;20044;-62
2023/05/04 04:06:09;;;;;;;13.38;7.63;;;6.10;99.90;;;;;;5052345;28;20040;-60
2023/05/04 04:08:35;;;;;;;11.48;6.95;;;6.10;99.90;;;;;;5051502;28;20049;-60
2023/05/04 04:11:01;;;;;;;13.15;7.43;;;6.00;99.90;;;;;;5050590;28;20491;-60
2023/05/04 04:13:27;;;;;;;12.90;7.00;;;6.00;99.90;;;;;;5051769;28;20171;-61
2023/05/04 04:15:53;;;;;;;13.80;7.15;;;6.00;99.90;;;;;;5034019;28;20037;-59
2023/05/04 04:18:19;;;;;;;13.98;7.03;;;6.00;99.90;;;;;;5051134;28;20045;-60
2023/05/04 04:20:45;;;;;;;12.80;7.28;;;6.10;99.90;;;;;;5050997;28;20441;-62
2023/05/04 04:23:11;;;;;;;10.85;6.70;;;6.00;99.90;;;;;;5052206;28;20056;-61
2023/05/04 04:25:36;;;;;;;16.17;6.93;;;6.00;99.90;;;;;;5052898;28;20387;-61
2023/05/04 04:28:02;;;;;;;12.60;6.65;;;6.00;99.90;;;;;;5052128;28;20033;-61
2023/05/04 04:30:28;;;;;;;10.95;6.70;;;6.00;99.90;;;;;;5052179;28;20041;-60
2023/05/04 04:32:55;;;;;;;11.80;6.68;;;6.10;99.90;;;;;;5052105;28;20076;-60
2023/05/04 04:35:22;;;;;;;11.32;6.97;;;6.10;99.90;;;;;;5052462;28;20075;-60
2023/05/04 04:37:47;;;;;;;14.63;6.80;;;6.10;99.90;;;;;;5052065;28;20119;-60
2023/05/04 04:40:13;;;;;;;13.05;6.93;;;6.10;99.90;;;;;;5051991;28;20531;-59
2023/05/04 04:42:38;;;;;;;9.80;6.45;;;6.10;99.90;;;;;;5051867;28;20128;-62
2023/05/04 04:45:05;;;;;;;11.30;6.82;;;6.10;99.90;;;;;;5050570;28;20057;-60
2023/05/04 04:47:31;;;;;;;13.50;6.82;;;6.10;99.90;;;;;;5053256;28;20507;-62
2023/05/04 04:49:57;;;;;;;11.07;6.65;;;6.10;99.90;;;;;;5051809;28;20079;-63
2023/05/04 04:52:23;;;;;;;10.02;6.22;;;6.20;99.90;;;;;;5051063;28;20076;-61
2023/05/04 04:54:50;;;;;;;9.80;6.72;;;6.10;99.90;;;;;;5049293;28;20118;-60
2023/05/04 04:57:15;;;;;;;12.70;7.13;;;6.20;99.90;;;;;;5052567;28;20037;-61
2023/05/04 04:59:41;;;;;;;13.25;7.63;;;6.20;99.90;;;;;;5050587;28;20185;-62
2023/05/04 05:02:07;;;;;;;12.70;7.00;;;6.20;99.90;;;;;;5049969;28;20479;-61
2023/05/04 05:04:33;;;;;;;10.82;7.10;;;6.20;99.90;;;;;;5051361;28;20041;-61
2023/05/04 05:06:58;;;;;;;12.38;7.45;;;6.30;99.90;;;;;;5051383;28;20215;-61
2023/05/04 05:09:24;;;;;;;10.68;6.28;;;6.30;99.90;;;;;;5049592;28;20044;-62
2023/05/04 05:11:49;;;;;;;15.32;7.75;;;6.30;99.90;;;;;;5050590;28;20037;-61
2023/05/04 05:14:15;;;;;;;12.73;7.40;;;6.40;99.90;;;;;;5050958;28;20175;-60
2023/05/04 05:16:41;;;;;;;10.57;6.72;;;6.50;99.90;;;;;;5048380;28;20175;-62
2023/05/04 05:19:06;;;;;;;14.30;7.00;;;6.50;99.90;;;;;;5047989;28;20128;-62
2023/05/04 05:21:32;;;;;;;11.00;7.20;;;6.50;99.90;;;;;;5047930;28;20045;-61
2023/05/04 05:23:57;;;;;;;13.23;7.10;;;6.50;99.90;;;;;;5046191;28;20048;-60
2023/05/04 05:26:23;;;;;;;12.55;6.82;;;6.60;99.90;;;;;;5049651;28;20516;-61
2023/05/04 05:28:49;;;;;;;10.88;6.88;;;6.60;99.90;;;;;;5048219;28;20044;-61
2023/05/04 05:31:15;;;;;;;9.98;7.13;;;6.70;99.90;;;;;;5051979;28;20108;-59
2023/05/04 05:33:41;;;;;;;12.57;6.95;;;6.80;99.90;;;;;;5048815;28;20132;-61
2023/05/04 05:36:07;;;;;;;11.65;7.25;;;6.90;99.90;;;;;;5048998;28;20048;-60
2023/05/04 05:38:32;;;;;;;12.00;6.70;;;6.90;99.90;;;;;;5047560;28;20090;-62
2023/05/04 05:40:58;;;;;;;10.63;6.97;;;7.00;99.90;;;;;;5049535;28;20051;-60
2023/05/04 05:43:24;;;;;;;9.15;6.30;;;7.00;99.90;;;;;;5048673;28;20507;-59
2023/05/04 05:45:49;;;;;;;12.80;6.63;;;7.10;99.90;;;;;;5049317;28;20044;-60
2023/05/04 05:48:15;;;;;;;9.77;6.95;;;7.10;99.90;;;;;;5050714;28;20037;-62
2023/05/04 05:50:41;;;;;;;11.40;6.93;;;7.20;99.90;;;;;;5050444;28;20029;-62
2023/05/04 05:53:06;;;;;;;12.65;7.55;;;7.30;99.90;;;;;;5050843;28;20053;-59
2023/05/04 05:55:32;;;;;;;14.32;7.78;;;7.30;99.90;;;;;;5050937;28;20396;-60
2023/05/04 05:57:57;;;;;;;12.27;7.68;;;7.40;99.90;;;;;;5049230;28;20051;-61
2023/05/04 06:00:23;;;;;;;13.43;7.70;;;7.40;99.90;;;;;;5050911;28;20047;-60
2023/05/04 06:02:50;;;;;;;11.85;7.68;;;7.50;99.90;;;;;;5051625;28;20116;-61
2023/05/04 06:05:16;;;;;;;11.65;7.32;;;7.60;99.90;;;;;;5050222;28;20041;-59
2023/05/04 06:07:41;;;;;;;12.13;7.18;;;7.60;99.90;;;;;;5048856;28;20040;-60
2023/05/04 06:10:08;;;;;;;12.63;7.55;;;7.70;99.90;;;;;;5049562;28;20033;-59
2023/05/04 06:12:34;;;;;;;11.68;7.50;;;7.80;99.90;;;;;;5047019;28;20048;-59
2023/05/04 06:15:00;;;;;;;11.18;6.75;;;7.80;99.90;;;;;;5049839;28;20384;-60
2023/05/04 06:17:25;;;;;;;14.38;7.38;;;7.90;99.90;;;;;;5049618;28;20033;-59
2023/05/04 06:19:51;;;;;;;11.63;6.88;;;7.90;99.90;;;;;;5049290;28;20033;-60
2023/05/04 06:22:17;;;;;;;10.43;7.00;;;8.00;99.90;;;;;;5050030;28;20079;-62
2023/05/04 06:24:42;;;;;;;9.68;6.57;;;8.20;99.90;;;;;;5065777;28;20041;-59
2023/05/04 06:27:08;;;;;;;14.77;7.30;;;8.40;99.90;;;;;;5049887;28;20517;-59
2023/05/04 06:29:37;;;;;;;14.05;7.03;;;8.60;99.90;;;;;;5045658;28;20044;-59
2023/05/04 06:32:02;;;;;;;14.38;7.20;;;8.80;99.90;;;;;;5048154;28;20037;-58
2023/05/04 06:34:28;;;;;;;12.43;7.05;;;9.00;99.90;;;;;;5042904;28;20048;-60
2023/05/04 06:36:54;;;;;;;11.65;7.07;;;9.10;99.90;;;;;;5048520;28;20419;-61
2023/05/04 06:39:19;;;;;;;11.13;6.93;;;9.20;99.90;;;;;;5049921;28;20037;-59
2023/05/04 06:41:45;;;;;;;12.27;6.95;;;9.30;99.90;;;;;;5047864;28;20037;-60
2023/05/04 06:44:11;;;;;;;11.27;6.68;;;9.40;99.90;;;;;;5047436;28;20036;-59
2023/05/04 06:46:36;;;;;;;11.55;7.43;;;9.50;99.90;;;;;;5049874;28;20033;-60
2023/05/04 06:49:03;;;;;;;12.00;6.85;;;9.60;99.90;;;;;;5050459;28;20029;-59
2023/05/04 06:51:29;;;;;;;11.82;7.07;;;9.70;99.90;;;;;;5050403;28;20536;-60
2023/05/04 06:53:55;;;;;;;11.05;7.18;;;9.80;99.90;;;;;;5048946;28;20065;-59
2023/05/04 06:56:22;;;;;;;9.10;6.75;;;9.90;99.90;;;;;;5050154;28;20551;-60
2023/05/04 06:58:49;;;;;;;13.93;7.15;;;10.10;99.90;;;;;;5050175;28;20074;-59
2023/05/04 07:01:15;;;;;;;10.95;7.03;;;10.20;99.90;;;;;;5050007;28;20036;-59
2023/05/04 07:03:41;;;;;;;11.75;6.85;;;10.30;99.90;;;;;;5050354;28;20488;-60
2023/05/04 07:06:07;;;;;;;11.30;6.82;;;10.40;99.90;;;;;;5048909;28;20047;-61
2023/05/04 07:08:33;;;;;;;9.32;6.93;;;10.60;99.90;;;;;;5046161;28;20086;-60
2023/05/04 07:10:59;;;;;;;9.57;6.53;;;10.70;99.90;;;;;;5048744;28;20098;-59
2023/05/04 07:13:25;;;;;;;12.82;7.25;;;10.80;99.90;;;;;;5049899;28;20480;-61
2023/05/04 07:15:51;;;;;;;15.48;7.20;;;10.90;99.90;;;;;;5050396;28;20025;-59
2023/05/04 07:18:16;;;;;;;10.73;7.25;;;10.90;99.90;;;;;;5050019;28;20033;-60
2023/05/04 07:20:42;;;;;;;11.45;6.95;;;10.90;99.90;;;;;;5048892;28;20033;-61
2023/05/04 07:23:08;;;;;;;12.57;6.78;;;10.90;99.90;;;;;;5048913;28;20037;-59
2023/05/04 07:25:33;;;;;;;9.27;6.80;;;11.00;99.90;;;;;;5048774;28;20048;-59
2023/05/04 07:27:59;;;;;;;15.02;7.57;;;11.00;99.90;;;;;;5048577;28;20072;-59
2023/05/04 07:30:26;;;;;;;11.63;6.63;;;11.10;99.90;;;;;;5048739;28;20422;-58
2023/05/04 07:32:51;;;;;;;13.65;7.70;;;11.20;99.90;;;;;;5049931;28;20033;-58
2023/05/04 07:35:17;;;;;;;12.77;6.45;;;11.40;99.90;;;;;;5050679;28;20051;-58
2023/05/04 07:37:43;;;;;;;10.18;7.57;;;11.50;99.90;;;;;;5053731;28;20494;-60
2023/05/04 07:40:10;;;;;;;21.63;9.30;;;11.60;99.90;;;;;;5052258;28;20029;-60
2023/05/04 07:42:35;;;;;;;12.60;7.35;;;11.60;99.90;;;;;;5053222;28;20098;-58
2023/05/04 07:45:01;;;;;;;11.07;6.82;;;11.70;99.90;;;;;;5052495;28;20032;-58
2023/05/04 07:47:27;;;;;;;10.15;6.82;;;11.80;99.90;;;;;;5053621;28;20045;-59
2023/05/04 07:49:53;;;;;;;11.27;6.88;;;11.80;99.90;;;;;;5053388;28;20072;-60
2023/05/04 07:52:18;;;;;;;9.70;6.72;;;11.90;99.90;;;;;;5053441;28;20060;-60
2023/05/04 07:54:44;;;;;;;9.55;6.35;;;12.00;99.90;;;;;;5053105;28;20043;-58
2023/05/04 07:57:10;;;;;;;11.68;6.55;;;12.10;99.90;;;;;;5052233;28;20045;-59
2023/05/04 07:59:35;;;;;;;8.50;6.45;;;12.20;99.90;;;;;;5053409;28;20083;-59
2023/05/04 08:02:01;;;;;;;12.50;6.50;;;12.40;99.90;;;;;;5053371;28;20141;-60
2023/05/04 08:04:26;;;;;;;9.27;6.40;;;12.60;99.90;;;;;;5068566;28;20476;-58
2023/05/04 08:06:52;;;;;;;10.23;6.22;;;12.80;99.90;;;;;;5053293;28;20033;-61
2023/05/04 08:09:18;;;;;;;15.48;7.90;;;13.00;99.90;;;;;;5053077;28;20395;-59
2023/05/04 08:11:48;;;;;;;12.10;6.82;;;13.30;99.90;;;;;;5051754;28;20496;-59
2023/05/04 08:14:14;;;;;;;10.38;6.10;;;13.70;99.90;;;;;;5053075;28;20488;-59
2023/05/04 08:16:40;;;;;;;9.95;6.05;;;14.00;99.90;;;;;;5052969;28;20065;-58
2023/05/04 08:19:05;;;;;;;10.80;6.45;;;14.20;99.90;;;;;;5052917;28;20040;-60
2023/05/04 08:21:31;;;;;;;9.05;6.15;;;14.40;99.90;;;;;;5052831;28;20116;-60
2023/05/04 08:23:57;;;;;;;9.18;5.80;;;14.40;99.90;;;;;;5051723;28;20033;-59
2023/05/04 08:26:23;;;;;;;12.48;6.30;;;14.50;99.90;;;;;;5052666;28;20037;-60
2023/05/04 08:28:49;;;;;;;7.40;5.72;;;14.50;99.90;;;;;;5051637;28;20044;-60
2023/05/04 08:31:17;;;;;;;9.18;5.88;;;14.70;99.90;;;;;;5052879;28;20060;-60
2023/05/04 08:33:43;;;;;;;10.30;5.95;;;14.80;99.90;;;;;;5051066;28;20523;-59
2023/05/04 08:36:09;;;;;;;7.85;5.47;;;14.80;99.90;;;;;;5052726;28;20048;-60
2023/05/04 08:38:34;;;;;;;9.55;5.97;;;14.90;99.90;;;;;;5052484;28;20040;-58
2023/05/04 08:41:02;;;;;;;9.90;6.40;;;14.90;99.90;;;;;;5051234;28;20466;-59
2023/05/04 08:43:28;;;;;;;7.90;6.03;;;15.00;99.90;;;;;;5052619;28;20511;-59
2023/05/04 08:45:54;;;;;;;9.02;6.13;;;15.00;99.90;;;;;;5050440;28;20045;-59
2023/05/04 08:48:21;;;;;;;11.82;5.75;;;15.10;99.90;;;;;;5052313;28;20036;-59
2023/05/04 08:50:47;;;;;;;9.23;5.63;;;15.10;99.90;;;;;;5052128;28;20476;-59
2023/05/04 08:53:15;;;;;;;11.85;5.97;;;15.20;99.90;;;;;;5052025;28;20049;-59
2023/05/04 08:55:43;;;;;;;8.32;5.18;;;15.30;99.90;;;;;;5050772;28;20106;-62
2023/05/04 08:58:15;;;;;;;7.28;4.97;;;15.50;99.90;;;;;;5052309;28;20396;-60
2023/05/04 09:00:42;;;;;;;9.48;5.60;;;15.60;99.90;;;;;;5051953;28;20091;-59
2023/05/04 09:03:12;;;;;;;9.10;5.57;;;15.80;99.90;;;;;;5050943;28;20040;-60
2023/05/04 09:05:40;;;;;;;8.95;5.15;;;15.90;99.90;;;;;;5052155;28;20118;-61
2023/05/04 09:08:06;;;;;;;9.13;5.10;;;16.00;99.90;;;;;;5051040;28;20055;-60
2023/05/04 09:10:32;;;;;;;9.02;5.43;;;16.20;99.90;;;;;;5052173;28;20036;-60
2023/05/04 09:12:58;;;;;;;8.65;5.78;;;16.30;99.90;;;;;;5051810;28;20033;-59
2023/05/04 09:15:23;;;;;;;9.63;5.57;;;16.60;99.90;;;;;;5050519;28;20057;-61
2023/05/04 09:18:04;;;;;;;7.68;4.97;;;16.90;99.70;;;;;;5051720;28;20048;-59
2023/05/04 09:20:41;;;;;;;9.82;5.28;;;17.10;98.50;;;;;;5051788;28;20048;-60
2023/05/04 09:23:07;;;;;;;12.38;5.28;;;17.30;98.60;;;;;;5051745;28;20407;-59
2023/05/04 09:25:54;;;;;;;9.65;5.35;;;17.40;98.20;;;;;;5051750;28;20036;-60
2023/05/04 09:28:32;;;;;;;8.30;5.35;;;17.60;97.90;;;;;;5051462;28;20036;-60
2023/05/04 09:31:01;;;;;;;8.55;4.97;;;17.70;97.60;;;;;;5051304;28;20418;-61
2023/05/04 09:33:28;;;;;;;6.78;5.00;;;17.80;97.60;;;;;;5051796;28;20071;-61
2023/05/04 09:35:53;;;;;;;8.77;4.93;;;17.90;97.80;;;;;;5051307;28;20037;-60
2023/05/04 09:38:26;;;;;;;7.35;4.85;;;18.00;97.20;;;;;;5051515;28;20071;-60
2023/05/04 09:40:52;;;;;;;11.57;4.45;;;18.20;96.90;;;;;;5051251;28;20037;-62
2023/05/04 09:43:17;;;;;;;8.05;4.88;;;18.40;96.00;;;;;;5051269;28;20051;-60
2023/05/04 09:45:46;;;;;;;6.40;4.32;;;18.40;95.60;;;;;;5051566;28;20149;-59
2023/05/04 09:48:18;;;;;;;7.35;4.35;;;18.50;94.70;;;;;;5051069;28;20099;-60
2023/05/04 09:51:14;;;;;;;6.88;4.72;;;18.60;95.40;;;;;;5051169;28;20040;-60
2023/05/04 09:53:42;;;;;;;5.70;4.30;;;18.80;95.00;;;;;;5028496;28;20568;-61
2023/05/04 09:56:11;;;;;;;6.10;4.35;;;19.00;95.20;;;;;;5028639;28;20599;-59
2023/05/04 09:58:37;;;;;;;7.45;4.43;;;19.00;94.40;;;;;;5028021;28;20049;-60
2023/05/04 10:01:03;;;;;;;7.13;4.35;;;19.00;93.80;;;;;;5012072;28;20048;-59
2023/05/04 10:03:30;;;;;;;7.07;4.13;;;18.90;93.30;;;;;;5012129;28;20045;-58
2023/05/04 10:06:02;;;;;;;5.30;3.95;;;18.80;93.20;;;;;;5028666;28;20516;-59
2023/05/04 10:08:28;;;;;;;5.28;3.65;;;18.80;92.80;;;;;;5028806;28;20044;-60
2023/05/04 10:10:54;;;;;;;5.22;4.00;;;19.00;93.40;;;;;;5028598;28;20045;-59
2023/05/04 10:13:20;;;;;;;6.15;3.85;;;19.10;93.20;;;;;;5028496;28;20227;-59
2023/05/04 10:16:17;;;;;;;5.28;3.65;;;19.20;92.80;;;;;;5028519;28;20467;-59
2023/05/04 10:18:54;;;;;;;8.57;3.80;;;19.30;92.70;;;;;;4988958;28;20050;-59
2023/05/04 10:21:28;;;;;;;7.55;3.55;;;19.40;91.70;;;;;;4989034;28;20069;-60
2023/05/04 10:24:13;;;;;;;5.50;3.33;;;19.50;91.90;;;;;;4988963;28;20058;-61
2023/05/04 10:27:01;;;;;;;7.15;3.45;;;19.60;90.90;;;;;;4972915;28;20049;-59
2023/05/04 10:29:31;;;;;;;7.80;3.92;;;19.80;91.00;;;;;;4999093;28;20132;-59
2023/05/04 10:31:58;;;;;;;5.50;3.10;;;20.00;91.40;;;;;;5028464;28;20131;-60
2023/05/04 10:34:33;;;;;;;6.97;3.53;;;20.10;91.20;;;;;;5028064;28;20103;-62
2023/05/04 10:37:00;;;;;;;7.25;3.80;;;20.30;91.00;;;;;;5028520;28;20041;-59
2023/05/04 10:39:28;;;;;;;7.18;3.88;;;20.20;88.80;;;;;;5028189;28;20045;-60
2023/05/04 10:41:58;;;;;;;6.72;3.45;;;20.20;87.80;;;;;;5028076;28;20072;-62
2023/05/04 10:44:24;;;;;;;7.15;3.88;;;20.00;86.40;;;;;;5028013;28;20083;-61
2023/05/04 10:47:06;;;;;;;4.28;3.10;;;19.90;87.20;;;;;;5028354;28;20076;-62
2023/05/04 10:49:33;;;;;;;;;;;19.80;89.00;;;;;;5028514;28;20041;-61
2023/05/04 10:52:07;;;;;;;7.30;3.17;;;19.80;87.50;;;;;;5028008;28;19929;-60
2023/05/04 10:54:35;;;;;;;5.72;3.22;;;19.90;86.90;;;;;;5008653;28;20042;-60
2023/05/04 10:57:09;;;;;;;4.22;2.53;;;19.90;86.30;;;;;;5050393;28;20060;-60
2023/05/04 10:59:35;;;;;;;6.72;2.95;;;20.00;85.10;;;;;;5050222;28;20075;-61
2023/05/04 11:02:02;;;;;;;6.78;2.72;;;20.20;85.10;;;;;;5032296;28;20103;-60
2023/05/04 11:04:28;;;;;;;5.80;2.50;;;20.30;83.30;;;;;;5050165;28;20041;-60
2023/05/04 11:07:04;;;;;;;4.90;2.90;;;20.40;82.20;;;;;;5050080;28;20040;-60
2023/05/04 11:09:57;;;;;;;6.38;2.60;;;20.50;79.80;;;;;;5052676;28;20041;-61
2023/05/04 11:12:24;;;;;;;4.93;2.97;;;21.00;81.40;;;;;;5049051;28;20053;-60
2023/05/04 11:14:49;;;;;;;6.82;2.50;;;21.10;79.80;;;;;;5054164;28;20051;-59
2023/05/04 11:17:15;;;;;;;6.05;2.72;;;21.40;79.00;;;;;;5053906;28;20120;-59
2023/05/04 11:19:48;;;;;;;7.10;2.67;;;21.50;77.30;;;;;;5054135;28;20451;-61
2023/05/04 11:22:15;;;;;;;3.42;2.75;;;21.70;78.50;;;;;;5052699;28;20414;-58
2023/05/04 11:24:45;;;;;;;4.05;2.97;;;21.70;78.60;;;;;;5053637;28;20135;-60
2023/05/04 11:27:29;;;;;;;8.05;3.55;;;21.90;77.30;;;;;;5052820;28;20541;-60
2023/05/04 11:29:59;;;;;;;3.03;2.22;;;21.90;72.60;;;;;;5052621;28;20045;-60
2023/05/04 11:32:36;;;;;;;7.82;3.15;;;21.90;73.60;;;;;;5053969;28;20095;-59
2023/05/04 11:35:14;;;;;;;4.93;3.13;;;21.80;73.10;;;;;;5053974;28;20140;-61
2023/05/04 11:37:41;;;;;;;7.28;2.90;;;21.70;74.60;;;;;;5052230;28;20146;-62
2023/05/04 11:40:12;;;;;;;5.57;2.80;;;21.50;74.20;;;;;;5053550;28;20041;-60
2023/05/04 11:42:41;;;;;;;5.15;2.90;;;21.30;73.90;;;;;;5053461;28;20048;-62
2023/05/04 11:45:31;;;;;;;3.88;2.70;;;21.20;74.50;;;;;;5052341;28;20119;-60
2023/05/04 11:47:58;;;;;;;5.90;3.28;;;21.30;75.80;;;;;;5053784;28;20029;-60
2023/05/04 11:50:25;;;;;;;5.22;3.20;;;21.50;75.50;;;;;;5053435;28;20518;-61
2023/05/04 11:53:12;;;;;;;6.20;3.25;;;21.70;75.80;;;;;;5053101;28;20519;-61
2023/05/04 11:55:38;;;;;;;4.85;3.25;;;21.90;75.00;;;;;;5052093;28;20044;-59
2023/05/04 11:58:09;;;;;;;6.20;2.90;;;22.10;74.10;;;;;;5053525;28;20036;-61
2023/05/04 12:00:44;;;;;;;5.00;2.67;;;22.30;74.70;;;;;;5052170;28;20483;-61
2023/05/04 12:03:13;;;;;;;4.15;2.75;;;22.40;73.30;;;;;;5052045;28;20052;-61
2023/05/04 12:05:48;;;;;;;5.63;3.72;;;22.50;73.50;;;;;;5051674;28;20041;-61
2023/05/04 12:08:44;;;;;;;9.20;3.22;;;22.30;72.90;;;;;;5051814;28;20037;-59
2023/05/04 12:11:24;;;;;;;6.50;3.40;;;22.20;71.80;;;;;;5014216;28;20052;-62
2023/05/04 12:14:08;;;;;;;6.53;3.10;;;22.00;70.80;;;;;;5030113;28;20049;-61
2023/05/04 12:16:34;;;;;;;6.35;3.20;;;22.00;71.10;;;;;;5029971;28;20077;-61
2023/05/04 12:19:03;;;;;;;5.57;3.03;;;22.10;71.60;;;;;;5030233;28;20041;-62
2023/05/04 12:21:30;;;;;;;7.07;2.90;;;22.20;72.10;;;;;;5013541;28;20053;-60
2023/05/04 12:23:59;;;;;;;5.03;2.85;;;22.10;70.00;;;;;;5030524;28;20439;-61
2023/05/04 12:26:25;;;;;;;4.57;2.65;;;22.10;70.70;;;;;;5014250;28;20090;-62
2023/05/04 12:28:51;;;;;;;5.63;2.88;;;22.10;70.70;;;;;;5030248;28;20042;-61
2023/05/04 12:31:17;;;;;;;4.85;2.90;;;22.00;69.80;;;;;;5030503;28;20038;-62
2023/05/04 12:33:44;;;;;;;7.13;2.35;;;21.90;69.10;;;;;;5030234;28;20037;-61
2023/05/04 12:36:10;;;;;;;4.00;2.45;;;21.70;69.40;;;;;;5030533;28;20043;-61
2023/05/04 12:38:38;;;;;;;5.15;2.70;;;21.60;68.80;;;;;;5030125;28;20037;-61
2023/05/04 12:41:09;;;;;;;6.68;2.40;;;21.60;68.80;;;;;;5030219;28;20056;-63
2023/05/04 12:43:35;;;;;;;5.97;2.58;;;21.60;68.50;;;;;;5030198;28;20063;-63
2023/05/04 12:46:01;;;;;;;5.00;2.10;;;21.30;67.00;;;;;;5030167;28;20037;-61
2023/05/04 12:48:30;;;;;;;5.85;2.45;;;21.30;68.00;;;;;;5046246;28;20064;-61
2023/05/04 12:50:58;;;;;;;4.50;2.00;;;21.20;68.50;;;;;;5052667;28;20025;-62